Terminal Aerodrome Forecast
Issued by NWS

Home | Current Version | Previous Version | Text Only | Print | Product List | Glossary On
Versions: 1 2 3 4 5 6 7 8 9 10 11 12 13 14
076
FTUS44 KEPZ 080520
TAFLRU
TAF
KLRU 080520Z 0806/0906 VRB04KT P6SM SCT120 OVC180
     FM080800 14005KT P6SM BKN070 OVC150
     FM081100 VRB06KT P6SM SCT022 OVC060
      TEMPO 0811/0814 14010KT BKN022
     FM081500 14012KT P6SM BKN022=

USA.gov is the U.S. government's official web portal to all federal, state and local government web resources and services.